createdAt,value
2019-05-18T00:00:33.187Z,16.04
2019-05-18T00:03:02.027Z,15.73
2019-05-18T00:05:30.665Z,16.31
2019-05-18T00:07:59.271Z,16.89
2019-05-18T00:10:28.402Z,16.89
2019-05-18T00:12:57.297Z,16.73
2019-05-18T00:15:25.978Z,16.92
2019-05-18T00:17:54.570Z,17.07
2019-05-18T00:20:23.181Z,16.76
2019-05-18T00:22:51.763Z,16.25
2019-05-18T00:25:20.439Z,16.13
2019-05-18T00:27:49.307Z,16.13
2019-05-18T00:30:17.962Z,16.29
2019-05-18T00:32:46.553Z,16.76
2019-05-18T00:35:16.720Z,17.02
2019-05-18T00:37:45.394Z,16.57
2019-05-18T00:40:14.114Z,16.57
2019-05-18T00:42:42.740Z,16.62
2019-05-18T00:45:11.532Z,16.92
2019-05-18T00:47:41.930Z,16.92
2019-05-18T00:50:10.535Z,17.16
2019-05-18T00:52:39.123Z,16.99
2019-05-18T00:55:07.854Z,16.79
2019-05-18T00:57:36.460Z,17.30
2019-05-18T01:00:06.012Z,17.10
2019-05-18T01:02:34.606Z,17.10
2019-05-18T01:05:03.316Z,17.18
2019-05-18T01:07:32.156Z,17.42
2019-05-18T01:10:00.764Z,17.22
2019-05-18T01:12:29.356Z,17.50
2019-05-18T01:14:58.025Z,17.50
2019-05-18T01:17:26.620Z,17.59
2019-05-18T01:19:55.357Z,17.58
2019-05-18T01:22:24.416Z,17.17
2019-05-18T01:24:53.050Z,17.10
2019-05-18T01:27:21.816Z,17.10
2019-05-18T01:29:50.431Z,17.31
2019-05-18T01:32:19.024Z,17.96
2019-05-18T01:34:47.704Z,17.84
2019-05-18T01:37:16.544Z,17.26
2019-05-18T01:39:45.178Z,17.26
2019-05-18T01:42:13.777Z,16.99
2019-05-18T01:44:42.484Z,17.37
2019-05-18T01:47:11.088Z,17.18
2019-05-18T01:49:39.745Z,17.33
2019-05-18T01:52:08.427Z,16.81
2019-05-18T01:54:37.280Z,16.37
2019-05-18T01:57:05.898Z,16.87
2019-05-18T01:59:34.765Z,16.65
2019-05-18T02:02:03.370Z,16.57
2019-05-18T02:04:33.363Z,16.57
2019-05-18T02:07:02.213Z,17.01
2019-05-18T02:09:30.762Z,16.43
2019-05-18T02:11:59.407Z,17.18
2019-05-18T02:14:28.220Z,17.35
2019-05-18T02:16:56.871Z,17.31
2019-05-18T02:19:25.546Z,17.31
2019-05-18T02:21:54.192Z,17.05
2019-05-18T02:24:22.778Z,17.23
2019-05-18T02:26:51.862Z,17.23
2019-05-18T02:29:20.533Z,17.09
2019-05-18T02:31:49.161Z,17.07
2019-05-18T02:34:17.758Z,16.97
2019-05-18T02:36:46.419Z,16.93
2019-05-18T02:39:15.020Z,16.93
2019-05-18T02:41:43.634Z,16.69
2019-05-18T02:44:12.222Z,16.60
2019-05-18T02:46:41.165Z,16.71
2019-05-18T02:49:10.088Z,16.71
2019-05-18T02:51:39.153Z,16.60
2019-05-18T02:54:08.047Z,16.37
2019-05-18T02:56:37.146Z,16.37
2019-05-18T02:59:05.751Z,16.49
2019-05-18T03:01:34.414Z,16.10
2019-05-18T03:04:03.021Z,16.10
2019-05-18T03:06:31.715Z,16.38
2019-05-18T03:09:00.388Z,16.38
2019-05-18T03:11:29.143Z,16.12
2019-05-18T03:13:57.869Z,16.50
2019-05-18T03:16:26.449Z,16.50
2019-05-18T03:19:07.334Z,16.41
2019-05-18T03:21:25.453Z,16.41
2019-05-18T03:23:54.099Z,16.70
2019-05-18T03:26:22.742Z,16.64
2019-05-18T03:28:51.325Z,16.64
2019-05-18T03:31:20.003Z,16.07
2019-05-18T03:33:48.840Z,16.07
2019-05-18T03:36:17.494Z,16.36
2019-05-18T03:38:46.179Z,15.79
2019-05-18T03:41:15.095Z,15.79
2019-05-18T03:43:43.781Z,15.47
2019-05-18T03:46:12.389Z,15.24
2019-05-18T03:48:40.974Z,15.63
2019-05-18T03:51:09.598Z,16.19
2019-05-18T03:53:38.251Z,15.86
2019-05-18T03:56:06.813Z,16.02
2019-05-18T03:58:35.434Z,15.95
2019-05-18T04:01:04.039Z,15.95
2019-05-18T04:03:32.672Z,15.91
2019-05-18T04:06:01.376Z,15.76
2019-05-18T04:08:30.007Z,16.32
2019-05-18T04:10:58.601Z,16.33
2019-05-18T04:13:27.299Z,16.68
2019-05-18T04:15:55.898Z,16.68
2019-05-18T04:18:24.741Z,16.57
2019-05-18T04:20:53.359Z,17.10
2019-05-18T04:23:22.204Z,17.10
2019-05-18T04:25:50.822Z,16.94
2019-05-18T04:28:19.672Z,16.60
2019-05-18T04:30:48.520Z,16.60
2019-05-18T04:33:17.138Z,17.01
2019-05-18T04:35:45.814Z,17.24
2019-05-18T04:38:14.463Z,17.24
2019-05-18T04:40:43.056Z,17.03
2019-05-18T04:43:11.912Z,17.60
2019-05-18T04:45:40.517Z,17.78
2019-05-18T04:48:09.156Z,17.43
2019-05-18T04:50:37.755Z,17.56
2019-05-18T04:53:06.728Z,17.33
2019-05-18T04:55:35.872Z,18.25
2019-05-18T04:58:04.560Z,18.43
2019-05-18T05:00:33.232Z,18.99
2019-05-18T05:03:02.112Z,18.76
2019-05-18T05:05:30.973Z,18.74
2019-05-18T05:07:59.798Z,18.88
2019-05-18T05:10:28.624Z,18.98
2019-05-18T05:12:57.221Z,19.71
2019-05-18T05:15:25.904Z,19.43
2019-05-18T05:17:54.488Z,19.24
2019-05-18T05:20:23.236Z,19.07
2019-05-18T05:22:51.843Z,18.94
2019-05-18T05:25:20.892Z,18.98
2019-05-18T05:27:49.474Z,19.14
2019-05-18T05:30:18.302Z,19.47
2019-05-18T05:32:47.524Z,19.65
2019-05-18T05:35:17.055Z,20.76
2019-05-18T05:37:45.663Z,21.60
2019-05-18T05:40:14.446Z,24.11
2019-05-18T05:42:43.347Z,26.03
2019-05-18T05:45:12.302Z,26.78
2019-05-18T05:47:41.272Z,27.33
2019-05-18T05:50:10.220Z,27.01
2019-05-18T05:52:39.146Z,26.55
2019-05-18T05:55:07.967Z,26.68
2019-05-18T05:57:36.568Z,27.50
2019-05-18T06:00:06.374Z,27.90
2019-05-18T06:02:34.990Z,28.96
2019-05-18T06:05:04.275Z,30.24
2019-05-18T06:07:32.921Z,30.21
2019-05-18T06:10:01.539Z,30.35
2019-05-18T06:12:30.136Z,31.54
2019-05-18T06:14:58.787Z,30.97
2019-05-18T06:17:27.612Z,30.62
2019-05-18T06:19:56.262Z,30.42
2019-05-18T06:22:25.127Z,31.36
2019-05-18T06:24:53.749Z,31.15
2019-05-18T06:27:22.359Z,29.63
2019-05-18T06:29:51.231Z,29.43
2019-05-18T06:32:19.888Z,30.67
2019-05-18T06:34:48.519Z,30.97
2019-05-18T06:37:17.150Z,30.85
2019-05-18T06:39:45.768Z,30.87
2019-05-18T06:42:14.868Z,31.26
2019-05-18T06:44:43.724Z,32.58
2019-05-18T06:47:12.610Z,31.77
2019-05-18T06:49:41.531Z,31.37
2019-05-18T06:52:10.147Z,32.28
2019-05-18T06:54:38.762Z,33.12
2019-05-18T06:57:08.435Z,32.16
2019-05-18T06:59:38.300Z,31.94
2019-05-18T07:02:06.931Z,31.03
2019-05-18T07:04:35.583Z,31.66
2019-05-18T07:07:04.278Z,32.34
2019-05-18T07:09:33.372Z,32.67
2019-05-18T07:12:02.302Z,33.09
2019-05-18T07:14:30.910Z,33.40
2019-05-18T07:16:59.679Z,34.18
2019-05-18T07:19:28.291Z,32.26
2019-05-18T07:21:56.905Z,33.79
2019-05-18T07:24:25.827Z,35.46
2019-05-18T07:26:54.448Z,34.82
2019-05-18T07:29:23.087Z,33.94
2019-05-18T07:31:51.720Z,34.69
2019-05-18T07:34:20.400Z,33.92
2019-05-18T07:36:49.051Z,34.62
2019-05-18T07:39:17.677Z,34.91
2019-05-18T07:41:47.315Z,34.82
2019-05-18T07:44:15.963Z,33.92
2019-05-18T07:46:44.874Z,33.73
2019-05-18T07:49:13.558Z,34.28
2019-05-18T07:51:42.218Z,33.23
2019-05-18T07:54:10.910Z,33.82
2019-05-18T07:56:39.539Z,34.79
2019-05-18T07:59:08.483Z,33.27
2019-05-18T08:01:37.113Z,32.84
2019-05-18T08:04:05.812Z,33.18
2019-05-18T08:06:34.421Z,34.71
2019-05-18T08:09:03.089Z,35.01
2019-05-18T08:11:31.732Z,33.69
2019-05-18T08:14:00.402Z,33.86
2019-05-18T08:16:28.951Z,33.52
2019-05-18T08:18:58.206Z,34.20
2019-05-18T08:21:26.884Z,33.91
2019-05-18T08:23:55.491Z,33.57
2019-05-18T08:26:24.400Z,34.28
2019-05-18T08:28:53.005Z,35.18
2019-05-18T08:31:21.675Z,35.18
2019-05-18T08:33:50.280Z,34.20
2019-05-18T08:36:19.130Z,33.71
2019-05-18T08:38:47.985Z,34.40
2019-05-18T08:41:16.619Z,34.33
2019-05-18T08:43:45.237Z,33.05
2019-05-18T08:46:14.253Z,33.50
2019-05-18T08:48:42.939Z,33.46
2019-05-18T08:51:12.898Z,34.91
2019-05-18T08:53:41.500Z,36.35
2019-05-18T08:56:10.132Z,34.46
2019-05-18T08:58:38.828Z,35.25
2019-05-18T09:01:08.117Z,36.61
2019-05-18T09:03:36.749Z,35.73
2019-05-18T09:06:05.778Z,36.69
2019-05-18T09:08:34.666Z,36.26
2019-05-18T09:11:03.289Z,37.25
2019-05-18T09:13:31.933Z,38.09
2019-05-18T09:16:00.533Z,38.45
2019-05-18T09:18:29.180Z,36.91
2019-05-18T09:20:57.833Z,36.68
2019-05-18T09:23:26.492Z,37.78
2019-05-18T09:25:55.115Z,35.48
2019-05-18T09:28:23.771Z,36.56
2019-05-18T09:30:52.914Z,35.83
2019-05-18T09:33:21.831Z,35.02
2019-05-18T09:35:50.479Z,37.50
2019-05-18T09:38:19.207Z,36.59
2019-05-18T09:40:47.822Z,34.94
2019-05-18T09:43:16.444Z,37.42
2019-05-18T09:45:45.102Z,37.15
2019-05-18T09:48:13.722Z,37.04
2019-05-18T09:50:42.353Z,37.20
2019-05-18T09:53:11.059Z,34.78
2019-05-18T09:55:39.732Z,34.67
2019-05-18T09:58:09.031Z,35.34
2019-05-18T10:00:39.195Z,35.67
2019-05-18T10:03:08.035Z,34.73
2019-05-18T10:05:37.628Z,34.95
2019-05-18T10:08:06.271Z,36.32
2019-05-18T10:10:34.947Z,36.80
2019-05-18T10:13:03.646Z,33.04
2019-05-18T10:15:32.274Z,35.02
2019-05-18T10:18:00.956Z,34.20
2019-05-18T10:20:29.590Z,35.60
2019-05-18T10:23:11.973Z,34.84
2019-05-18T10:25:28.648Z,35.75
2019-05-18T10:27:57.568Z,36.04
2019-05-18T10:30:26.169Z,36.78
2019-05-18T10:32:55.051Z,37.16
2019-05-18T10:35:24.716Z,36.74
2019-05-18T10:37:53.294Z,37.65
2019-05-18T10:40:22.296Z,37.29
2019-05-18T10:42:50.917Z,35.82
2019-05-18T10:45:19.696Z,35.85
2019-05-18T10:47:48.591Z,36.57
2019-05-18T10:50:17.201Z,34.93
2019-05-18T10:52:45.828Z,33.87
2019-05-18T10:55:14.522Z,35.07
2019-05-18T10:57:43.191Z,36.88
2019-05-18T11:00:12.290Z,35.90
2019-05-18T11:02:41.096Z,37.18
2019-05-18T11:05:10.150Z,36.22
2019-05-18T11:07:39.028Z,35.75
2019-05-18T11:10:07.829Z,35.04
2019-05-18T11:12:36.648Z,36.19
2019-05-18T11:15:05.829Z,36.03
2019-05-18T11:17:34.472Z,34.32
2019-05-18T11:20:03.248Z,34.25
2019-05-18T11:22:31.854Z,33.89
2019-05-18T11:25:00.501Z,34.19
2019-05-18T11:27:29.124Z,33.93
2019-05-18T11:29:57.800Z,32.78
2019-05-18T11:32:26.466Z,32.10
2019-05-18T11:34:55.085Z,32.71
2019-05-18T11:37:23.720Z,31.73
2019-05-18T11:39:52.350Z,31.56
2019-05-18T11:42:20.984Z,31.97
2019-05-18T11:44:49.627Z,30.36
2019-05-18T11:47:18.372Z,30.94
2019-05-18T11:49:47.098Z,31.64
2019-05-18T11:52:15.989Z,31.24
2019-05-18T11:54:44.721Z,31.12
2019-05-18T11:57:13.709Z,31.05
2019-05-18T11:59:42.294Z,30.50
2019-05-18T12:02:11.215Z,29.67
2019-05-18T12:04:39.855Z,30.70
2019-05-18T12:07:08.525Z,30.26
2019-05-18T12:09:37.214Z,30.79
2019-05-18T12:12:05.796Z,31.65
2019-05-18T12:14:34.676Z,30.51
2019-05-18T12:17:03.569Z,30.48
2019-05-18T12:19:32.318Z,30.97
2019-05-18T12:22:00.919Z,31.89
2019-05-18T12:24:29.520Z,31.76
2019-05-18T12:26:58.384Z,30.78
2019-05-18T12:29:26.991Z,31.52
2019-05-18T12:31:55.650Z,30.09
2019-05-18T12:34:24.464Z,31.09
2019-05-18T12:36:53.834Z,30.89
2019-05-18T12:39:22.521Z,32.10
2019-05-18T12:41:51.133Z,31.28
2019-05-18T12:44:20.083Z,30.37
2019-05-18T12:46:49.149Z,29.89
2019-05-18T12:49:17.753Z,30.87
2019-05-18T12:51:46.382Z,30.43
2019-05-18T12:54:28.405Z,28.77
2019-05-18T12:56:45.370Z,29.74
2019-05-18T12:59:13.996Z,28.94
2019-05-18T13:01:42.596Z,30.38
2019-05-18T13:04:11.297Z,29.35
2019-05-18T13:06:39.898Z,30.25
2019-05-18T13:09:08.722Z,30.46
2019-05-18T13:11:37.840Z,30.62
2019-05-18T13:14:06.457Z,30.48
2019-05-18T13:16:35.090Z,30.12
2019-05-18T13:19:03.989Z,30.09
2019-05-18T13:21:32.635Z,30.07
2019-05-18T13:24:01.360Z,29.57
2019-05-18T13:26:30.005Z,29.82
2019-05-18T13:28:58.649Z,30.41
2019-05-18T13:31:27.262Z,31.25
2019-05-18T13:33:55.954Z,30.69
2019-05-18T13:36:24.629Z,30.16
2019-05-18T13:38:53.311Z,29.39
2019-05-18T13:41:23.174Z,29.18
2019-05-18T13:43:52.288Z,28.94
2019-05-18T13:46:20.950Z,29.34
2019-05-18T13:48:49.588Z,29.39
2019-05-18T13:51:18.255Z,30.38
2019-05-18T13:53:46.863Z,31.20
2019-05-18T13:56:15.598Z,29.14
2019-05-18T13:58:44.232Z,29.10
2019-05-18T14:01:12.904Z,28.86
2019-05-18T14:03:41.540Z,29.44
2019-05-18T14:06:10.167Z,30.45
2019-05-18T14:08:38.875Z,30.66
2019-05-18T14:11:07.505Z,30.11
2019-05-18T14:13:36.153Z,30.46
2019-05-18T14:16:04.847Z,30.08
2019-05-18T14:18:33.578Z,30.14
2019-05-18T14:21:02.495Z,30.70
2019-05-18T14:23:31.235Z,28.77
2019-05-18T14:25:59.877Z,28.62
2019-05-18T14:28:28.715Z,28.70
2019-05-18T14:30:58.387Z,27.96
2019-05-18T14:33:27.026Z,28.93
2019-05-18T14:35:55.659Z,28.95
2019-05-18T14:38:24.498Z,28.37
2019-05-18T14:40:53.116Z,29.32
2019-05-18T14:43:22.088Z,30.13
2019-05-18T14:45:50.732Z,29.30
2019-05-18T14:48:19.409Z,29.03
2019-05-18T14:50:48.260Z,29.66
2019-05-18T14:53:17.178Z,29.18
2019-05-18T14:55:45.814Z,28.30
2019-05-18T14:58:14.468Z,29.31
2019-05-18T15:00:43.118Z,29.09
2019-05-18T15:03:11.739Z,29.24
2019-05-18T15:05:40.678Z,29.97
2019-05-18T15:08:09.353Z,28.98
2019-05-18T15:10:38.129Z,29.15
2019-05-18T15:13:06.897Z,27.93
2019-05-18T15:15:35.575Z,28.09
2019-05-18T15:18:04.316Z,28.22
2019-05-18T15:20:33.061Z,29.15
2019-05-18T15:23:01.784Z,29.07
2019-05-18T15:25:30.622Z,29.81
2019-05-18T15:27:59.284Z,28.69
2019-05-18T15:30:27.994Z,29.54
2019-05-18T15:32:56.629Z,29.31
2019-05-18T15:35:25.636Z,29.16
2019-05-18T15:37:54.338Z,29.14
2019-05-18T15:40:23.143Z,29.37
2019-05-18T15:42:51.794Z,28.41
2019-05-18T15:45:20.514Z,29.12
2019-05-18T15:47:49.419Z,28.65
2019-05-18T15:50:18.316Z,28.40
2019-05-18T15:52:46.984Z,29.00
2019-05-18T15:55:15.818Z,29.01
2019-05-18T15:57:44.556Z,27.88
2019-05-18T16:00:13.789Z,28.86
2019-05-18T16:02:42.758Z,29.04
2019-05-18T16:05:11.649Z,28.83
2019-05-18T16:07:40.516Z,29.71
2019-05-18T16:10:09.620Z,29.79
2019-05-18T16:12:38.317Z,29.17
2019-05-18T16:15:08.495Z,29.22
2019-05-18T16:17:39.924Z,30.03
2019-05-18T16:20:07.830Z,29.73
2019-05-18T16:22:36.478Z,29.13
2019-05-18T16:25:05.451Z,27.73
2019-05-18T16:27:34.226Z,28.73
2019-05-18T16:30:02.931Z,28.65
2019-05-18T16:32:31.770Z,28.01
2019-05-18T16:35:00.721Z,29.21
2019-05-18T16:37:29.375Z,29.61
2019-05-18T16:39:58.307Z,29.33
2019-05-18T16:42:26.986Z,29.19
2019-05-18T16:44:55.802Z,28.53
2019-05-18T16:47:24.418Z,28.54
2019-05-18T16:49:53.440Z,28.94
2019-05-18T16:52:22.123Z,27.96
2019-05-18T16:54:50.809Z,28.03
2019-05-18T16:57:19.638Z,29.07
2019-05-18T16:59:48.341Z,29.08
2019-05-18T17:02:30.707Z,27.47
2019-05-18T17:04:47.593Z,27.33
2019-05-18T17:07:16.362Z,27.13
2019-05-18T17:09:45.181Z,27.63
2019-05-18T17:12:14.074Z,27.60
2019-05-18T17:14:42.748Z,28.21
2019-05-18T17:17:11.568Z,27.27
2019-05-18T17:19:40.203Z,27.93
2019-05-18T17:22:08.926Z,27.92
2019-05-18T17:24:37.804Z,27.31
2019-05-18T17:27:06.581Z,27.43
2019-05-18T17:29:35.455Z,27.99
2019-05-18T17:32:05.165Z,27.54
2019-05-18T17:34:34.683Z,28.17
2019-05-18T17:37:03.428Z,28.25
2019-05-18T17:39:32.247Z,27.83
2019-05-18T17:42:04.820Z,27.44
2019-05-18T17:44:31.936Z,26.94
2019-05-18T17:47:00.829Z,28.05
2019-05-18T17:49:29.535Z,28.06
2019-05-18T17:51:58.153Z,28.03
2019-05-18T17:54:26.959Z,28.01
2019-05-18T17:57:07.952Z,27.85
2019-05-18T17:59:26.236Z,27.26
2019-05-18T18:01:54.928Z,27.76
2019-05-18T18:04:23.739Z,26.99
2019-05-18T18:06:52.651Z,27.65
2019-05-18T18:09:22.297Z,27.76
2019-05-18T18:11:51.058Z,27.25
2019-05-18T18:14:20.185Z,28.08
2019-05-18T18:16:49.029Z,27.43
2019-05-18T18:19:17.692Z,27.65
2019-05-18T18:21:46.326Z,27.34
2019-05-18T18:24:15.169Z,27.53
2019-05-18T18:26:44.883Z,26.98
2019-05-18T18:29:13.894Z,27.18
2019-05-18T18:34:05.515Z,26.77
2019-05-18T18:36:34.205Z,26.65
2019-05-18T18:39:04.487Z,26.80
2019-05-18T18:41:33.346Z,27.01
2019-05-18T18:44:01.942Z,26.34
2019-05-18T18:46:30.590Z,25.97
2019-05-18T18:48:59.244Z,25.81
2019-05-18T18:51:27.947Z,25.57
2019-05-18T18:53:56.821Z,25.17
2019-05-18T18:56:25.575Z,24.66
2019-05-18T18:58:54.299Z,25.02
2019-05-18T19:01:23.031Z,24.66
2019-05-18T19:03:52.041Z,24.13
2019-05-18T19:06:20.971Z,23.90
2019-05-18T19:08:49.702Z,23.91
2019-05-18T19:11:18.634Z,23.90
2019-05-18T19:13:47.573Z,23.43
2019-05-18T19:16:16.446Z,23.43
2019-05-18T19:18:45.135Z,23.24
2019-05-18T19:21:13.783Z,22.99
2019-05-18T19:23:42.441Z,23.72
2019-05-18T19:26:11.156Z,23.53
2019-05-18T19:28:40.018Z,23.36
2019-05-18T19:31:08.906Z,22.97
2019-05-18T19:33:37.723Z,23.13
2019-05-18T19:36:06.355Z,23.04
2019-05-18T19:38:34.967Z,22.69
2019-05-18T19:41:03.668Z,22.64
2019-05-18T19:43:32.359Z,22.81
2019-05-18T19:46:01.199Z,22.16
2019-05-18T19:48:29.816Z,22.62
2019-05-18T19:50:58.436Z,22.60
2019-05-18T19:53:27.505Z,22.38
2019-05-18T19:55:57.417Z,22.01
2019-05-18T19:58:26.144Z,21.86
2019-05-18T20:00:54.761Z,22.13
2019-05-18T20:03:23.513Z,21.76
2019-05-18T20:05:52.194Z,21.90
2019-05-18T20:08:21.072Z,22.19
2019-05-18T20:10:49.819Z,22.06
2019-05-18T20:13:18.434Z,21.86
2019-05-18T20:15:47.127Z,22.23
2019-05-18T20:18:15.889Z,21.45
2019-05-18T20:20:44.493Z,21.38
2019-05-18T20:23:13.180Z,21.57
2019-05-18T20:25:41.840Z,21.84
2019-05-18T20:28:22.896Z,21.87
2019-05-18T20:30:40.883Z,21.81
2019-05-18T20:33:09.540Z,21.61
2019-05-18T20:35:38.413Z,21.37
2019-05-18T20:38:07.306Z,21.22
2019-05-18T20:40:35.959Z,21.15
2019-05-18T20:43:04.717Z,21.34
2019-05-18T20:45:33.657Z,20.56
2019-05-18T20:48:02.284Z,20.95
2019-05-18T20:50:30.925Z,20.83
2019-05-18T20:52:59.706Z,20.99
2019-05-18T20:55:28.380Z,21.02
2019-05-18T20:57:57.028Z,20.14
2019-05-18T21:00:26.038Z,20.94
2019-05-18T21:02:54.668Z,20.74
2019-05-18T21:05:24.504Z,20.83
2019-05-18T21:07:53.171Z,20.88
2019-05-18T21:10:21.865Z,20.49
2019-05-18T21:12:50.524Z,20.74
2019-05-18T21:15:19.283Z,20.57
2019-05-18T21:17:48.352Z,20.12
2019-05-18T21:20:17.017Z,20.73
2019-05-18T21:22:45.631Z,20.79
2019-05-18T21:25:14.372Z,21.02
2019-05-18T21:27:42.980Z,20.83
2019-05-18T21:30:11.705Z,20.98
2019-05-18T21:32:40.707Z,20.35
2019-05-18T21:35:09.526Z,20.71
2019-05-18T21:37:38.162Z,20.54
2019-05-18T21:40:08.050Z,20.65
2019-05-18T21:42:36.760Z,20.97
2019-05-18T21:45:05.736Z,20.75
2019-05-18T21:47:34.338Z,20.68
2019-05-18T21:50:03.120Z,20.46
2019-05-18T21:52:31.740Z,20.23
2019-05-18T21:55:00.459Z,20.23
2019-05-18T21:57:29.272Z,19.86
2019-05-18T21:59:57.867Z,20.23
2019-05-18T22:02:26.537Z,20.41
2019-05-18T22:04:55.150Z,20.29
2019-05-18T22:07:24.089Z,19.48
2019-05-18T22:09:53.823Z,20.27
2019-05-18T22:12:22.630Z,20.28
2019-05-18T22:14:51.335Z,19.90
2019-05-18T22:17:19.988Z,19.93
2019-05-18T22:19:48.628Z,19.23
2019-05-18T22:22:17.380Z,19.31
2019-05-18T22:24:46.076Z,19.48
2019-05-18T22:27:14.664Z,19.31
2019-05-18T22:29:43.372Z,19.35
2019-05-18T22:32:12.203Z,19.41
2019-05-18T22:34:41.404Z,18.70
2019-05-18T22:37:10.132Z,18.85
2019-05-18T22:39:38.729Z,19.45
2019-05-18T22:42:07.384Z,19.76
2019-05-18T22:44:36.113Z,19.86
2019-05-18T22:47:05.329Z,19.50
2019-05-18T22:49:33.913Z,19.51
2019-05-18T22:52:02.542Z,19.71
2019-05-18T22:54:31.164Z,19.68
2019-05-18T22:56:59.815Z,19.69
2019-05-18T22:59:28.633Z,19.57
2019-05-18T23:01:57.357Z,18.87
2019-05-18T23:04:26.256Z,19.02
2019-05-18T23:06:54.857Z,18.31
2019-05-18T23:09:23.459Z,19.07
2019-05-18T23:11:52.666Z,18.99
2019-05-18T23:14:21.713Z,18.63
2019-05-18T23:16:50.405Z,19.06
2019-05-18T23:19:19.046Z,19.02
2019-05-18T23:21:47.881Z,19.60
2019-05-18T23:24:16.591Z,19.82
2019-05-18T23:26:45.601Z,19.21
2019-05-18T23:29:14.381Z,19.03
2019-05-18T23:31:43.241Z,19.49
2019-05-18T23:34:12.079Z,18.78
2019-05-18T23:36:41.240Z,18.59
2019-05-18T23:39:10.044Z,19.04
2019-05-18T23:41:38.830Z,18.64
2019-05-18T23:44:07.701Z,18.69
2019-05-18T23:46:36.639Z,18.74
2019-05-18T23:49:10.862Z,19.16
2019-05-18T23:51:36.246Z,18.33
2019-05-18T23:54:04.945Z,19.13
2019-05-18T23:56:33.570Z,18.83
2019-05-18T23:59:02.253Z,18.84
